createdAt,value
2022-10-22T00:00:46.331Z,24.35
2022-10-22T00:03:49.456Z,24.28
2022-10-22T00:06:52.702Z,24.61
2022-10-22T00:09:55.844Z,24.49
2022-10-22T00:12:58.897Z,24.61
2022-10-22T00:16:01.922Z,24.14
2022-10-22T00:19:07.637Z,24.22
2022-10-22T00:22:11.392Z,24.10
2022-10-22T00:25:14.560Z,24.22
2022-10-22T00:28:17.586Z,23.98
2022-10-22T00:31:21.062Z,24.12
2022-10-22T00:34:24.514Z,23.87
2022-10-22T00:37:27.581Z,23.74
2022-10-22T00:40:30.723Z,23.74
2022-10-22T00:43:34.091Z,23.52
2022-10-22T00:46:37.177Z,23.45
2022-10-22T00:49:40.677Z,23.31
2022-10-22T00:52:45.255Z,23.31
2022-10-22T00:55:50.875Z,23.23
2022-10-22T00:58:57.588Z,23.22
2022-10-22T01:02:00.737Z,23.12
2022-10-22T01:05:05.677Z,23.11
2022-10-22T01:08:17.849Z,23.07
2022-10-22T01:11:42.613Z,22.87
2022-10-22T01:14:57.554Z,22.92
2022-10-22T01:18:08.250Z,22.83
2022-10-22T01:21:25.808Z,22.88
2022-10-22T01:25:03.905Z,22.57
2022-10-22T01:28:17.660Z,22.66
2022-10-22T01:31:21.522Z,22.56
2022-10-22T01:34:25.694Z,22.46
2022-10-22T01:37:31.691Z,22.55
2022-10-22T01:40:35.346Z,22.39
2022-10-22T01:43:40.474Z,22.27
2022-10-22T01:46:43.502Z,22.21
2022-10-22T01:49:52.518Z,22.20
2022-10-22T01:53:12.219Z,22.28
2022-10-22T01:56:53.649Z,22.36
2022-10-22T02:00:01.814Z,22.34
2022-10-22T02:03:23.715Z,22.28
2022-10-22T02:06:28.508Z,22.10
2022-10-22T02:09:32.241Z,21.91
2022-10-22T02:12:36.204Z,21.83
2022-10-22T02:15:39.491Z,21.93
2022-10-22T02:18:44.567Z,21.75
2022-10-22T02:21:47.714Z,21.72
2022-10-22T02:24:50.975Z,21.50
2022-10-22T02:28:09.939Z,21.66
2022-10-22T02:31:20.449Z,21.52
2022-10-22T02:34:26.333Z,21.53
2022-10-22T02:37:29.697Z,21.48
2022-10-22T02:40:33.208Z,21.41
2022-10-22T02:43:44.491Z,21.16
2022-10-22T02:46:47.638Z,21.46
2022-10-22T02:49:50.789Z,21.47
2022-10-22T02:52:53.849Z,21.21
2022-10-22T02:55:56.879Z,20.93
2022-10-22T02:58:59.853Z,21.10
2022-10-22T03:02:02.994Z,20.97
2022-10-22T03:05:06.775Z,20.81
2022-10-22T03:08:09.884Z,20.95
2022-10-22T03:11:12.938Z,20.87
2022-10-22T03:14:16.160Z,20.93
2022-10-22T03:17:19.254Z,20.86
2022-10-22T03:20:22.329Z,20.82
2022-10-22T03:23:25.380Z,20.69
2022-10-22T03:26:28.478Z,20.77
2022-10-22T03:29:33.140Z,20.52
2022-10-22T03:32:36.269Z,20.44
2022-10-22T03:35:43.941Z,20.40
2022-10-22T03:38:47.126Z,20.54
2022-10-22T03:41:52.240Z,20.32
2022-10-22T03:44:57.682Z,20.48
2022-10-22T03:48:00.705Z,20.44
2022-10-22T03:51:03.898Z,20.44
2022-10-22T03:54:07.009Z,20.35
2022-10-22T03:57:10.616Z,20.42
2022-10-22T04:00:13.774Z,20.50
2022-10-22T04:03:16.887Z,20.47
2022-10-22T04:06:19.878Z,20.30
2022-10-22T04:09:22.944Z,20.18
2022-10-22T04:12:26.069Z,20.13
2022-10-22T04:15:29.274Z,20.05
2022-10-22T04:18:32.349Z,20.07
2022-10-22T04:21:36.126Z,20.12
2022-10-22T04:24:39.304Z,19.99
2022-10-22T04:27:42.741Z,19.94
2022-10-22T04:30:46.980Z,19.93
2022-10-22T04:33:56.955Z,19.95
2022-10-22T04:36:59.938Z,19.76
2022-10-22T04:40:02.989Z,19.80
2022-10-22T04:43:06.348Z,20.10
2022-10-22T04:46:10.755Z,20.24
2022-10-22T04:49:13.812Z,20.19
2022-10-22T04:52:16.845Z,20.29
2022-10-22T04:55:20.080Z,20.28
2022-10-22T04:58:23.347Z,20.23
2022-10-22T05:01:29.060Z,20.03
2022-10-22T05:04:32.169Z,20.15
2022-10-22T05:07:35.262Z,19.83
2022-10-22T05:10:38.254Z,19.95
2022-10-22T05:13:41.406Z,19.95
2022-10-22T05:19:47.377Z,19.88
2022-10-22T05:22:50.418Z,19.76
2022-10-22T05:25:53.535Z,19.74
2022-10-22T05:28:57.736Z,19.67
2022-10-22T05:32:02.799Z,19.68
2022-10-22T05:35:06.229Z,19.67
2022-10-22T05:38:09.210Z,19.51
2022-10-22T05:41:17.736Z,19.49
2022-10-22T05:44:22.928Z,19.52
2022-10-22T05:47:26.100Z,19.47
2022-10-22T05:50:31.177Z,19.35
2022-10-22T05:53:35.330Z,19.28
2022-10-22T05:56:39.408Z,19.20
2022-10-22T05:59:44.888Z,19.18
2022-10-22T06:02:51.314Z,19.11
2022-10-22T06:05:54.984Z,19.24
2022-10-22T06:09:02.238Z,19.33
2022-10-22T06:12:05.717Z,19.09
2022-10-22T06:15:12.241Z,19.08
2022-10-22T06:18:17.693Z,19.08
2022-10-22T06:21:20.707Z,18.79
2022-10-22T06:24:23.748Z,18.68
2022-10-22T06:27:28.834Z,18.49
2022-10-22T06:30:33.939Z,18.81
2022-10-22T06:33:37.671Z,18.59
2022-10-22T06:39:44.515Z,18.55
2022-10-22T06:42:47.567Z,18.42
2022-10-22T06:45:50.951Z,18.51
2022-10-22T06:48:59.674Z,18.23
2022-10-22T06:52:02.669Z,18.40
2022-10-22T06:55:06.073Z,18.59
2022-10-22T06:58:09.064Z,18.68
2022-10-22T07:01:14.161Z,18.65
2022-10-22T07:04:19.804Z,18.57
2022-10-22T07:07:22.852Z,18.54
2022-10-22T07:10:28.525Z,18.70
2022-10-22T07:13:33.077Z,18.62
2022-10-22T07:16:36.173Z,18.38
2022-10-22T07:19:39.209Z,18.37
2022-10-22T07:22:42.533Z,18.28
2022-10-22T07:25:48.232Z,18.30
2022-10-22T07:28:51.747Z,18.32
2022-10-22T07:31:55.838Z,18.41
2022-10-22T07:34:58.831Z,18.21
2022-10-22T07:38:02.136Z,18.31
2022-10-22T07:41:08.386Z,18.27
2022-10-22T07:44:12.638Z,18.37
2022-10-22T07:47:16.626Z,17.98
2022-10-22T07:50:19.988Z,18.14
2022-10-22T07:53:23.189Z,18.18
2022-10-22T07:56:26.225Z,17.82
2022-10-22T07:59:29.212Z,17.66
2022-10-22T08:02:32.345Z,17.55
2022-10-22T08:05:35.675Z,17.69
2022-10-22T08:08:39.441Z,17.98
2022-10-22T08:11:42.521Z,17.82
2022-10-22T08:14:45.552Z,17.67
2022-10-22T08:17:48.541Z,17.44
2022-10-22T08:20:52.177Z,17.40
2022-10-22T08:23:55.263Z,17.62
2022-10-22T08:26:58.369Z,17.40
2022-10-22T08:30:01.417Z,17.26
2022-10-22T08:33:05.280Z,17.21
2022-10-22T08:36:09.211Z,17.49
2022-10-22T08:39:12.425Z,17.70
2022-10-22T08:42:35.575Z,17.56
2022-10-22T08:45:53.432Z,17.34
2022-10-22T08:49:02.172Z,17.09
2022-10-22T08:52:05.522Z,16.85
2022-10-22T08:55:14.141Z,16.72
2022-10-22T08:58:35.253Z,16.74
2022-10-22T09:01:42.082Z,16.71
2022-10-22T09:04:48.606Z,16.71
2022-10-22T09:07:51.705Z,17.00
2022-10-22T09:11:05.078Z,17.25
2022-10-22T09:14:24.203Z,17.33
2022-10-22T09:17:36.788Z,17.04
2022-10-22T09:20:44.138Z,17.22
2022-10-22T09:23:56.204Z,17.23
2022-10-22T09:26:59.473Z,17.13
2022-10-22T09:30:02.729Z,17.07
2022-10-22T09:33:08.749Z,16.89
2022-10-22T09:36:17.716Z,16.56
2022-10-22T09:39:27.095Z,16.62
2022-10-22T09:42:30.738Z,16.47
2022-10-22T09:45:33.762Z,16.57
2022-10-22T09:48:38.841Z,16.61
2022-10-22T09:51:55.678Z,16.60
2022-10-22T09:55:03.141Z,17.00
2022-10-22T09:58:06.255Z,16.86
2022-10-22T10:01:09.329Z,16.84
2022-10-22T10:04:16.676Z,16.78
2022-10-22T10:07:19.680Z,16.56
2022-10-22T10:10:51.970Z,16.35
2022-10-22T10:14:16.455Z,16.79
2022-10-22T10:17:31.831Z,16.78
2022-10-22T10:20:43.740Z,16.55
2022-10-22T10:23:53.785Z,16.26
2022-10-22T10:27:06.222Z,16.20
2022-10-22T10:30:23.697Z,16.13
2022-10-22T10:33:45.327Z,16.32
2022-10-22T10:37:22.540Z,16.26
2022-10-22T10:40:35.401Z,16.08
2022-10-22T10:43:56.601Z,16.18
2022-10-22T10:47:14.376Z,16.20
2022-10-22T10:50:51.275Z,16.20
2022-10-22T10:54:14.798Z,15.99
2022-10-22T10:57:20.601Z,16.03
2022-10-22T11:00:23.919Z,16.02
2022-10-22T11:03:41.590Z,16.04
2022-10-22T11:06:46.818Z,16.02
2022-10-22T11:09:55.782Z,16.15
2022-10-22T11:13:13.834Z,16.19
2022-10-22T11:16:36.072Z,16.58
2022-10-22T11:19:52.971Z,16.38
2022-10-22T11:23:24.762Z,16.64
2022-10-22T11:26:42.762Z,16.55
2022-10-22T11:29:50.519Z,16.89
2022-10-22T11:33:01.058Z,17.09
2022-10-22T11:36:07.512Z,16.91
2022-10-22T11:39:42.088Z,16.75
2022-10-22T11:42:51.504Z,16.77
2022-10-22T11:46:02.080Z,17.12
2022-10-22T11:49:14.171Z,17.18
2022-10-22T11:52:37.301Z,17.12
2022-10-22T11:55:53.010Z,17.28
2022-10-22T11:58:56.579Z,17.47
2022-10-22T12:01:59.601Z,17.41
2022-10-22T12:05:41.128Z,17.44
2022-10-22T12:09:06.690Z,17.14
2022-10-22T12:12:16.810Z,17.05
2022-10-22T12:15:29.187Z,16.85
2022-10-22T12:18:37.522Z,16.51
2022-10-22T12:21:42.150Z,16.40
2022-10-22T12:24:48.165Z,16.45
2022-10-22T12:27:55.808Z,16.63
2022-10-22T12:31:00.728Z,16.95
2022-10-22T12:34:04.316Z,16.94
2022-10-22T12:37:07.641Z,16.70
2022-10-22T12:40:28.570Z,16.52
2022-10-22T12:43:32.430Z,16.33
2022-10-22T12:46:37.984Z,16.48
2022-10-22T12:49:44.393Z,16.37
2022-10-22T12:52:48.665Z,16.48
2022-10-22T12:55:53.256Z,16.39
2022-10-22T12:59:19.130Z,16.51
2022-10-22T13:02:24.907Z,16.64
2022-10-22T13:05:31.291Z,17.00
2022-10-22T13:08:36.891Z,17.14
2022-10-22T13:11:50.243Z,17.40
2022-10-22T13:14:53.341Z,17.35
2022-10-22T13:18:24.132Z,17.40
2022-10-22T13:21:36.084Z,17.62
2022-10-22T13:24:50.182Z,17.84
2022-10-22T13:27:59.942Z,18.19
2022-10-22T13:31:20.585Z,17.96
2022-10-22T13:34:25.618Z,18.43
2022-10-22T13:37:30.761Z,18.59
2022-10-22T13:40:35.845Z,18.32
2022-10-22T13:43:38.831Z,18.32
2022-10-22T13:46:41.982Z,18.54
2022-10-22T13:49:45.063Z,19.03
2022-10-22T13:52:51.763Z,18.92
2022-10-22T13:55:54.796Z,19.16
2022-10-22T13:58:57.881Z,19.22
2022-10-22T14:02:00.924Z,19.29
2022-10-22T14:05:04.126Z,19.66
2022-10-22T14:08:13.999Z,19.59
2022-10-22T14:11:18.148Z,19.77
2022-10-22T14:14:21.147Z,19.74
2022-10-22T14:17:24.225Z,19.65
2022-10-22T14:20:31.650Z,19.79
2022-10-22T14:23:36.246Z,20.00
2022-10-22T14:26:40.222Z,20.14
2022-10-22T14:29:43.354Z,20.47
2022-10-22T14:32:46.692Z,20.48
2022-10-22T14:35:50.424Z,20.53
2022-10-22T14:38:53.439Z,20.58
2022-10-22T14:41:56.687Z,20.96
2022-10-22T14:44:59.711Z,21.40
2022-10-22T14:48:02.737Z,21.10
2022-10-22T14:51:05.889Z,21.30
2022-10-22T14:54:08.953Z,21.42
2022-10-22T14:57:11.945Z,21.66
2022-10-22T15:00:19.201Z,21.86
2022-10-22T15:03:22.205Z,21.82
2022-10-22T15:06:25.273Z,21.60
2022-10-22T15:09:29.517Z,22.13
2022-10-22T15:12:32.729Z,22.46
2022-10-22T15:15:39.653Z,22.07
2022-10-22T15:18:43.222Z,22.28
2022-10-22T15:21:46.242Z,22.46
2022-10-22T15:24:49.449Z,22.33
2022-10-22T15:27:54.842Z,22.70
2022-10-22T15:31:02.608Z,22.64
2022-10-22T15:34:05.623Z,22.96
2022-10-22T15:37:11.533Z,23.17
2022-10-22T15:40:14.521Z,22.87
2022-10-22T15:43:17.539Z,22.89
2022-10-22T15:46:20.704Z,23.41
2022-10-22T15:49:28.578Z,23.41
2022-10-22T15:52:35.037Z,24.18
2022-10-22T15:55:38.137Z,24.47
2022-10-22T15:58:41.165Z,24.31
2022-10-22T16:01:45.597Z,24.09
2022-10-22T16:04:48.621Z,24.36
2022-10-22T16:07:51.748Z,24.07
2022-10-22T16:10:54.984Z,24.54
2022-10-22T16:13:59.253Z,25.23
2022-10-22T16:17:03.224Z,25.17
2022-10-22T16:20:07.002Z,24.34
2022-10-22T16:23:10.334Z,24.62
2022-10-22T16:26:14.300Z,25.09
2022-10-22T16:29:17.482Z,24.88
2022-10-22T16:32:20.668Z,25.15
2022-10-22T16:35:23.661Z,24.98
2022-10-22T16:38:28.754Z,25.77
2022-10-22T16:41:33.834Z,25.93
2022-10-22T16:44:37.565Z,25.77
2022-10-22T16:47:41.182Z,25.28
2022-10-22T16:50:45.298Z,25.08
2022-10-22T16:53:48.355Z,24.84
2022-10-22T16:56:52.170Z,25.28
2022-10-22T16:59:55.646Z,25.67
2022-10-22T17:02:58.961Z,25.24
2022-10-22T17:06:02.492Z,25.41
2022-10-22T17:09:06.063Z,25.26
2022-10-22T17:12:09.289Z,25.42
2022-10-22T17:15:12.958Z,26.23
2022-10-22T17:18:16.066Z,26.58
2022-10-22T17:21:19.850Z,25.56
2022-10-22T17:24:22.844Z,26.12
2022-10-22T17:27:26.136Z,26.41
2022-10-22T17:30:29.186Z,26.78
2022-10-22T17:33:32.713Z,26.76
2022-10-22T17:36:36.805Z,27.13
2022-10-22T17:39:39.859Z,26.44
2022-10-22T17:42:43.045Z,25.86
2022-10-22T17:45:46.520Z,25.55
2022-10-22T17:48:54.481Z,25.67
2022-10-22T17:51:57.855Z,26.79
2022-10-22T17:55:00.938Z,27.31
2022-10-22T17:58:04.106Z,26.84
2022-10-22T18:01:07.835Z,25.97
2022-10-22T18:04:12.579Z,26.08
2022-10-22T18:07:15.657Z,26.30
2022-10-22T18:10:18.682Z,27.11
2022-10-22T18:13:21.708Z,27.01
2022-10-22T18:16:25.532Z,27.04
2022-10-22T18:19:28.560Z,26.89
2022-10-22T18:22:31.638Z,27.28
2022-10-22T18:28:38.947Z,26.77
2022-10-22T18:31:44.746Z,26.40
2022-10-22T18:34:47.799Z,26.65
2022-10-22T18:37:50.895Z,27.45
2022-10-22T18:40:54.126Z,27.03
2022-10-22T18:43:59.169Z,26.55
2022-10-22T18:47:02.315Z,27.64
2022-10-22T18:50:05.641Z,27.56
2022-10-22T18:53:08.892Z,27.90
2022-10-22T18:56:12.862Z,27.21
2022-10-22T18:59:21.896Z,26.64
2022-10-22T19:02:27.407Z,26.72
2022-10-22T19:05:30.538Z,26.86
2022-10-22T19:08:35.095Z,26.72
2022-10-22T19:11:38.288Z,27.67
2022-10-22T19:14:41.756Z,27.88
2022-10-22T19:17:45.132Z,27.40
2022-10-22T19:20:48.788Z,27.93
2022-10-22T19:23:51.828Z,28.41
2022-10-22T19:26:54.813Z,28.09
2022-10-22T19:29:57.884Z,27.71
2022-10-22T19:33:00.913Z,27.51
2022-10-22T19:36:08.293Z,27.71
2022-10-22T19:39:11.337Z,27.60
2022-10-22T19:42:14.563Z,27.86
2022-10-22T19:45:17.645Z,27.56
2022-10-22T19:48:20.748Z,27.66
2022-10-22T19:51:26.350Z,27.35
2022-10-22T19:54:29.551Z,27.37
2022-10-22T19:57:32.629Z,27.25
2022-10-22T20:00:36.729Z,27.57
2022-10-22T20:03:40.020Z,28.60
2022-10-22T20:06:43.528Z,28.39
2022-10-22T20:09:46.526Z,28.70
2022-10-22T20:12:49.555Z,28.84
2022-10-22T20:15:52.619Z,28.44
2022-10-22T20:18:55.985Z,28.94
2022-10-22T20:25:07.291Z,27.57
2022-10-22T20:28:12.402Z,28.06
2022-10-22T20:31:20.193Z,27.35
2022-10-22T20:34:23.213Z,27.87
2022-10-22T20:37:26.328Z,27.84
2022-10-22T20:40:29.434Z,27.31
2022-10-22T20:43:32.939Z,27.46
2022-10-22T20:46:35.983Z,27.69
2022-10-22T20:49:40.388Z,27.76
2022-10-22T20:52:43.681Z,27.96
2022-10-22T20:55:46.843Z,27.71
2022-10-22T20:58:50.149Z,27.02
2022-10-22T21:01:54.361Z,27.27
2022-10-22T21:04:57.553Z,27.64
2022-10-22T21:08:00.911Z,27.34
2022-10-22T21:11:04.178Z,27.11
2022-10-22T21:14:08.538Z,26.88
2022-10-22T21:17:11.605Z,26.78
2022-10-22T21:20:14.782Z,26.81
2022-10-22T21:23:18.850Z,27.07
2022-10-22T21:26:21.975Z,27.09
2022-10-22T21:29:24.982Z,26.95
2022-10-22T21:32:29.545Z,27.02
2022-10-22T21:35:32.597Z,26.81
2022-10-22T21:38:36.116Z,27.26
2022-10-22T21:41:39.278Z,27.31
2022-10-22T21:44:42.424Z,27.84
2022-10-22T21:47:46.702Z,28.26
2022-10-22T21:50:49.907Z,26.69
2022-10-22T21:53:53.386Z,27.36
2022-10-22T21:56:56.490Z,27.20
2022-10-22T21:59:59.526Z,27.11
2022-10-22T22:03:02.895Z,27.45
2022-10-22T22:06:07.427Z,27.64
2022-10-22T22:09:10.615Z,27.48
2022-10-22T22:12:13.709Z,27.20
2022-10-22T22:15:16.917Z,26.50
2022-10-22T22:18:20.497Z,26.31
2022-10-22T22:21:23.569Z,26.29
2022-10-22T22:24:26.990Z,26.15
2022-10-22T22:27:30.112Z,26.12
2022-10-22T22:30:33.138Z,26.19
2022-10-22T22:33:36.185Z,26.04
2022-10-22T22:36:41.548Z,26.02
2022-10-22T22:39:44.779Z,25.97
2022-10-22T22:42:47.798Z,25.88
2022-10-22T22:46:11.463Z,25.90
2022-10-22T22:49:14.695Z,25.75
2022-10-22T22:52:17.866Z,25.72
2022-10-22T22:55:20.912Z,25.59
2022-10-22T22:58:24.171Z,25.69
2022-10-22T23:01:29.979Z,26.07
2022-10-22T23:04:33.111Z,25.46
2022-10-22T23:07:36.243Z,25.19
2022-10-22T23:10:39.363Z,25.08
2022-10-22T23:13:43.623Z,25.11
2022-10-22T23:16:50.073Z,24.94
2022-10-22T23:19:53.051Z,25.05
2022-10-22T23:22:56.079Z,24.81
2022-10-22T23:26:01.723Z,24.85
2022-10-22T23:29:08.154Z,24.65
2022-10-22T23:32:15.000Z,24.87
2022-10-22T23:35:18.202Z,24.82
2022-10-22T23:38:23.882Z,24.54
2022-10-22T23:41:26.939Z,24.61
2022-10-22T23:44:29.972Z,24.54
2022-10-22T23:47:33.003Z,24.27
2022-10-22T23:50:37.186Z,24.28
2022-10-22T23:53:42.141Z,24.40
2022-10-22T23:56:45.670Z,24.44
2022-10-22T23:59:48.760Z,24.20
